sensor_id;sensor_type;location;lat;lon;timestamp;pressure;altitude;pressure_sealevel;temperature;humidity
29825;BME280;16713;52.916;12.834;2023-04-23T00:01:41;100084.63;;;13.45;61.41
29825;BME280;16713;52.916;12.834;2023-04-23T00:04:08;100085.84;;;13.58;60.74
29825;BME280;16713;52.916;12.834;2023-04-23T00:06:35;100081.19;;;13.65;58.94
29825;BME280;16713;52.916;12.834;2023-04-23T00:09:02;100083.56;;;13.70;60.03
29825;BME280;16713;52.916;12.834;2023-04-23T00:11:29;100074.50;;;13.80;59.22
29825;BME280;16713;52.916;12.834;2023-04-23T00:13:56;100076.47;;;13.83;59.20
29825;BME280;16713;52.916;12.834;2023-04-23T00:16:22;100078.06;;;13.88;59.93
29825;BME280;16713;52.916;12.834;2023-04-23T00:18:50;100075.72;;;13.97;59.01
29825;BME280;16713;52.916;12.834;2023-04-23T00:21:16;100075.31;;;14.09;59.73
29825;BME280;16713;52.916;12.834;2023-04-23T00:23:43;100093.47;;;14.31;58.46
29825;BME280;16713;52.916;12.834;2023-04-23T00:26:09;100078.47;;;14.32;57.25
29825;BME280;16713;52.916;12.834;2023-04-23T00:28:36;100072.94;;;14.46;56.95
29825;BME280;16713;52.916;12.834;2023-04-23T00:31:02;100081.22;;;14.53;57.73
29825;BME280;16713;52.916;12.834;2023-04-23T00:33:29;100082.78;;;14.57;58.54
29825;BME280;16713;52.916;12.834;2023-04-23T00:35:55;100081.63;;;14.62;57.15
29825;BME280;16713;52.916;12.834;2023-04-23T00:38:22;100085.19;;;14.66;57.89
29825;BME280;16713;52.916;12.834;2023-04-23T00:40:48;100086.34;;;14.72;57.40
29825;BME280;16713;52.916;12.834;2023-04-23T00:43:15;100087.09;;;14.80;58.08
29825;BME280;16713;52.916;12.834;2023-04-23T00:45:42;100091.00;;;14.93;57.27
29825;BME280;16713;52.916;12.834;2023-04-23T00:48:10;100081.53;;;14.97;56.00
29825;BME280;16713;52.916;12.834;2023-04-23T00:50:37;100083.53;;;14.97;56.44
29825;BME280;16713;52.916;12.834;2023-04-23T00:53:04;100087.03;;;15.01;56.13
29825;BME280;16713;52.916;12.834;2023-04-23T00:55:31;100082.72;;;15.07;55.90
29825;BME280;16713;52.916;12.834;2023-04-23T00:57:58;100087.03;;;15.04;57.53
29825;BME280;16713;52.916;12.834;2023-04-23T01:00:26;100079.56;;;15.01;58.32
29825;BME280;16713;52.916;12.834;2023-04-23T01:02:52;100073.22;;;15.04;56.93
29825;BME280;16713;52.916;12.834;2023-04-23T01:05:21;100079.56;;;15.01;58.65
29825;BME280;16713;52.916;12.834;2023-04-23T01:07:48;100078.00;;;15.00;59.36
29825;BME280;16713;52.916;12.834;2023-04-23T01:10:16;100077.19;;;14.96;60.28
29825;BME280;16713;52.916;12.834;2023-04-23T01:12:42;100077.63;;;14.88;60.98
29825;BME280;16713;52.916;12.834;2023-04-23T01:15:09;100073.31;;;14.76;61.82
29825;BME280;16713;52.916;12.834;2023-04-23T01:17:35;100067.81;;;14.65;63.60
29825;BME280;16713;52.916;12.834;2023-04-23T01:20:02;100067.03;;;14.58;65.92
29825;BME280;16713;52.916;12.834;2023-04-23T01:22:36;100060.72;;;14.43;66.13
29825;BME280;16713;52.916;12.834;2023-04-23T01:25:03;100063.13;;;14.34;67.70
29825;BME280;16713;52.916;12.834;2023-04-23T01:27:30;100059.94;;;14.22;68.23
29825;BME280;16713;52.916;12.834;2023-04-23T01:29:57;100059.19;;;14.18;69.08
29825;BME280;16713;52.916;12.834;2023-04-23T01:32:24;100054.44;;;14.08;69.51
29825;BME280;16713;52.916;12.834;2023-04-23T01:34:51;100055.22;;;14.01;68.06
29825;BME280;16713;52.916;12.834;2023-04-23T01:37:19;100046.19;;;13.97;67.54
29825;BME280;16713;52.916;12.834;2023-04-23T01:39:46;100053.25;;;13.95;68.82
29825;BME280;16713;52.916;12.834;2023-04-23T01:42:12;100053.25;;;13.95;67.43
29825;BME280;16713;52.916;12.834;2023-04-23T01:44:39;100055.63;;;13.86;69.94
29825;BME280;16713;52.916;12.834;2023-04-23T01:47:06;100055.63;;;13.89;69.31
29825;BME280;16713;52.916;12.834;2023-04-23T01:49:33;100056.00;;;13.91;66.93
29825;BME280;16713;52.916;12.834;2023-04-23T01:51:59;100052.06;;;13.89;68.14
29825;BME280;16713;52.916;12.834;2023-04-23T01:54:26;100050.91;;;13.86;70.21
29825;BME280;16713;52.916;12.834;2023-04-23T01:56:52;100050.91;;;13.83;69.42
29825;BME280;16713;52.916;12.834;2023-04-23T01:59:20;100055.22;;;13.80;69.55
29825;BME280;16713;52.916;12.834;2023-04-23T02:01:48;100051.66;;;13.73;71.80
29825;BME280;16713;52.916;12.834;2023-04-23T02:04:16;100046.53;;;13.71;71.60
29825;BME280;16713;52.916;12.834;2023-04-23T02:06:45;100041.03;;;13.75;70.28
29825;BME280;16713;52.916;12.834;2023-04-23T02:09:12;100040.63;;;13.73;71.75
29825;BME280;16713;52.916;12.834;2023-04-23T02:11:39;100039.84;;;13.69;71.58
29825;BME280;16713;52.916;12.834;2023-04-23T02:14:06;100034.31;;;13.69;71.43
29825;BME280;16713;52.916;12.834;2023-04-23T02:16:32;100035.09;;;13.62;73.11
29825;BME280;16713;52.916;12.834;2023-04-23T02:18:59;100034.28;;;13.62;72.32
29825;BME280;16713;52.916;12.834;2023-04-23T02:21:27;100035.09;;;13.59;72.49
29825;BME280;16713;52.916;12.834;2023-04-23T02:23:53;100028.38;;;13.56;73.64
29825;BME280;16713;52.916;12.834;2023-04-23T02:26:20;100031.50;;;13.44;73.24
29825;BME280;16713;52.916;12.834;2023-04-23T02:28:48;100026.78;;;13.37;74.58
29825;BME280;16713;52.916;12.834;2023-04-23T02:31:14;100028.34;;;13.31;75.77
29825;BME280;16713;52.916;12.834;2023-04-23T02:33:42;100027.16;;;13.32;75.69
29825;BME280;16713;52.916;12.834;2023-04-23T02:36:08;100022.81;;;13.31;75.68
29825;BME280;16713;52.916;12.834;2023-04-23T02:38:36;100023.59;;;13.32;76.24
29825;BME280;16713;52.916;12.834;2023-04-23T02:41:06;100023.97;;;13.30;75.19
29825;BME280;16713;52.916;12.834;2023-04-23T02:43:33;100016.91;;;13.29;76.58
29825;BME280;16713;52.916;12.834;2023-04-23T02:46:00;100020.06;;;13.31;75.94
29825;BME280;16713;52.916;12.834;2023-04-23T02:48:40;100016.91;;;13.29;75.45
29825;BME280;16713;52.916;12.834;2023-04-23T02:51:09;100021.63;;;13.29;76.03
29825;BME280;16713;52.916;12.834;2023-04-23T02:53:36;100016.91;;;13.29;76.13
29825;BME280;16713;52.916;12.834;2023-04-23T02:56:02;100020.47;;;13.37;76.18
29825;BME280;16713;52.916;12.834;2023-04-23T02:58:29;100022.44;;;13.40;75.60
29825;BME280;16713;52.916;12.834;2023-04-23T03:00:56;100027.16;;;13.43;74.75
29825;BME280;16713;52.916;12.834;2023-04-23T03:03:26;100019.31;;;13.38;75.68
29825;BME280;16713;52.916;12.834;2023-04-23T03:05:58;100019.28;;;13.31;76.21
29825;BME280;16713;52.916;12.834;2023-04-23T03:08:26;100023.59;;;13.35;76.36
29825;BME280;16713;52.916;12.834;2023-04-23T03:10:52;100026.75;;;13.45;75.29
29825;BME280;16713;52.916;12.834;2023-04-23T03:13:19;100020.88;;;13.43;74.71
29825;BME280;16713;52.916;12.834;2023-04-23T03:15:45;100021.66;;;13.40;75.30
29825;BME280;16713;52.916;12.834;2023-04-23T03:18:11;100026.41;;;13.46;74.29
29825;BME280;16713;52.916;12.834;2023-04-23T03:20:38;100024.41;;;13.47;74.57
29825;BME280;16713;52.916;12.834;2023-04-23T03:23:04;100017.72;;;13.44;75.64
29825;BME280;16713;52.916;12.834;2023-04-23T03:25:32;100022.44;;;13.44;75.40
29825;BME280;16713;52.916;12.834;2023-04-23T03:27:59;100022.81;;;13.38;75.95
29825;BME280;16713;52.916;12.834;2023-04-23T03:30:26;100014.56;;;13.31;76.01
29825;BME280;16713;52.916;12.834;2023-04-23T03:32:56;100018.09;;;13.25;75.65
29825;BME280;16713;52.916;12.834;2023-04-23T03:35:24;100013.72;;;13.17;75.10
29825;BME280;16713;52.916;12.834;2023-04-23T03:37:51;100012.53;;;13.14;75.47
29825;BME280;16713;52.916;12.834;2023-04-23T03:40:18;100011.38;;;13.15;76.11
29825;BME280;16713;52.916;12.834;2023-04-23T03:42:45;100017.28;;;13.21;75.01
29825;BME280;16713;52.916;12.834;2023-04-23T03:45:13;100010.59;;;13.22;76.07
29825;BME280;16713;52.916;12.834;2023-04-23T03:47:39;100010.97;;;13.24;74.89
29825;BME280;16713;52.916;12.834;2023-04-23T03:50:06;100005.50;;;13.31;74.83
29825;BME280;16713;52.916;12.834;2023-04-23T03:52:34;100009.41;;;13.19;75.12
29825;BME280;16713;52.916;12.834;2023-04-23T03:55:01;100000.72;;;13.10;74.45
29825;BME280;16713;52.916;12.834;2023-04-23T03:57:28;99997.56;;;13.08;75.22
29825;BME280;16713;52.916;12.834;2023-04-23T03:59:54;100007.03;;;13.07;75.62
29825;BME280;16713;52.916;12.834;2023-04-23T04:02:21;99999.91;;;12.99;75.33
29825;BME280;16713;52.916;12.834;2023-04-23T04:04:48;99995.91;;;12.86;75.72
29825;BME280;16713;52.916;12.834;2023-04-23T04:07:17;99990.75;;;12.78;76.05
29825;BME280;16713;52.916;12.834;2023-04-23T04:09:43;99993.50;;;12.74;75.48
29825;BME280;16713;52.916;12.834;2023-04-23T04:12:12;99994.25;;;12.68;76.21
29825;BME280;16713;52.916;12.834;2023-04-23T04:14:38;99992.63;;;12.63;76.33
29825;BME280;16713;52.916;12.834;2023-04-23T04:17:05;99987.53;;;12.62;76.65
29825;BME280;16713;52.916;12.834;2023-04-23T04:19:31;99991.03;;;12.55;76.60
29825;BME280;16713;52.916;12.834;2023-04-23T04:21:58;99995.34;;;12.60;76.69
29825;BME280;16713;52.916;12.834;2023-04-23T04:24:25;99997.38;;;12.66;76.63
29825;BME280;16713;52.916;12.834;2023-04-23T04:26:52;100005.66;;;12.70;77.76
29825;BME280;16713;52.916;12.834;2023-04-23T04:29:19;100004.91;;;12.73;77.14
29825;BME280;16713;52.916;12.834;2023-04-23T04:31:46;100001.78;;;12.78;78.14
29825;BME280;16713;52.916;12.834;2023-04-23T04:34:14;100010.09;;;12.92;78.21
29825;BME280;16713;52.916;12.834;2023-04-23T04:36:40;100010.53;;;13.01;76.58
29825;BME280;16713;52.916;12.834;2023-04-23T04:39:07;100009.75;;;13.11;77.21
29825;BME280;16713;52.916;12.834;2023-04-23T04:41:35;100016.06;;;13.11;76.25
29825;BME280;16713;52.916;12.834;2023-04-23T04:44:02;100016.84;;;13.08;77.27
29825;BME280;16713;52.916;12.834;2023-04-23T04:46:28;100014.50;;;13.17;78.15
29825;BME280;16713;52.916;12.834;2023-04-23T04:48:57;100012.97;;;13.23;77.44
29825;BME280;16713;52.916;12.834;2023-04-23T04:51:23;100013.41;;;13.40;76.88
29825;BME280;16713;52.916;12.834;2023-04-23T04:53:49;100010.25;;;13.45;76.24
29825;BME280;16713;52.916;12.834;2023-04-23T04:56:16;100027.97;;;13.51;75.97
29825;BME280;16713;52.916;12.834;2023-04-23T04:58:42;100021.69;;;13.57;76.15
29825;BME280;16713;52.916;12.834;2023-04-23T05:01:09;100018.56;;;13.66;76.46
29825;BME280;16713;52.916;12.834;2023-04-23T05:03:36;100019.78;;;13.68;76.01
29825;BME280;16713;52.916;12.834;2023-04-23T05:06:03;100028.84;;;13.79;75.31
29825;BME280;16713;52.916;12.834;2023-04-23T05:08:29;100033.16;;;13.84;75.36
29825;BME280;16713;52.916;12.834;2023-04-23T05:10:56;100029.22;;;13.92;76.79
29825;BME280;16713;52.916;12.834;2023-04-23T05:13:22;100041.44;;;14.05;76.35
29825;BME280;16713;52.916;12.834;2023-04-23T05:15:49;100036.34;;;14.07;76.23
29825;BME280;16713;52.916;12.834;2023-04-23T05:18:15;100031.59;;;14.07;77.11
29825;BME280;16713;52.916;12.834;2023-04-23T05:20:41;100040.25;;;14.09;77.17
29825;BME280;16713;52.916;12.834;2023-04-23T05:23:08;100039.88;;;14.11;77.14
29825;BME280;16713;52.916;12.834;2023-04-23T05:25:35;100042.63;;;14.11;76.76
29825;BME280;16713;52.916;12.834;2023-04-23T05:28:01;100041.81;;;14.14;76.17
29825;BME280;16713;52.916;12.834;2023-04-23T05:30:28;100045.00;;;14.19;75.84
29825;BME280;16713;52.916;12.834;2023-04-23T05:32:54;100042.22;;;14.16;74.99
29825;BME280;16713;52.916;12.834;2023-04-23T05:35:21;100047.34;;;14.17;76.61
29825;BME280;16713;52.916;12.834;2023-04-23T05:37:47;100043.41;;;14.08;76.16
29825;BME280;16713;52.916;12.834;2023-04-23T05:40:14;100046.19;;;14.15;75.76
29825;BME280;16713;52.916;12.834;2023-04-23T05:42:40;100044.19;;;14.15;76.13
29825;BME280;16713;52.916;12.834;2023-04-23T05:45:07;100056.03;;;14.23;76.23
29825;BME280;16713;52.916;12.834;2023-04-23T05:47:35;100050.88;;;14.25;76.73
29825;BME280;16713;52.916;12.834;2023-04-23T05:50:01;100056.03;;;14.26;76.52
29825;BME280;16713;52.916;12.834;2023-04-23T05:52:28;100061.53;;;14.30;76.15
29825;BME280;16713;52.916;12.834;2023-04-23T05:54:58;100056.03;;;14.26;76.96
29825;BME280;16713;52.916;12.834;2023-04-23T05:57:24;100063.91;;;14.28;77.67
29825;BME280;16713;52.916;12.834;2023-04-23T05:59:51;100056.81;;;14.30;76.51
29825;BME280;16713;52.916;12.834;2023-04-23T06:02:18;100061.16;;;14.28;76.52
29825;BME280;16713;52.916;12.834;2023-04-23T06:04:46;100063.50;;;14.29;76.86
29825;BME280;16713;52.916;12.834;2023-04-23T06:07:14;100056.00;;;14.30;77.24
29825;BME280;16713;52.916;12.834;2023-04-23T06:09:40;100054.03;;;14.30;78.58
29825;BME280;16713;52.916;12.834;2023-04-23T06:12:09;100054.03;;;14.34;77.11
29825;BME280;16713;52.916;12.834;2023-04-23T06:14:36;100051.28;;;14.34;77.15
29825;BME280;16713;52.916;12.834;2023-04-23T06:17:03;100051.28;;;14.34;78.45
29825;BME280;16713;52.916;12.834;2023-04-23T06:19:29;100051.28;;;14.34;78.75
29825;BME280;16713;52.916;12.834;2023-04-23T06:21:55;100053.25;;;14.37;77.34
29825;BME280;16713;52.916;12.834;2023-04-23T06:24:22;100053.66;;;14.32;78.73
29825;BME280;16713;52.916;12.834;2023-04-23T06:26:48;100052.88;;;14.24;79.52
29825;BME280;16713;52.916;12.834;2023-04-23T06:29:15;100053.25;;;14.19;78.81
29825;BME280;16713;52.916;12.834;2023-04-23T06:31:41;100049.34;;;14.13;78.42
29825;BME280;16713;52.916;12.834;2023-04-23T06:34:08;100054.44;;;14.25;78.09
29825;BME280;16713;52.916;12.834;2023-04-23T06:36:35;100054.84;;;14.13;79.07
29825;BME280;16713;52.916;12.834;2023-04-23T06:39:01;100054.44;;;14.22;78.69
29825;BME280;16713;52.916;12.834;2023-04-23T06:41:27;100056.03;;;14.23;79.90
29825;BME280;16713;52.916;12.834;2023-04-23T06:43:54;100057.59;;;14.17;80.05
29825;BME280;16713;52.916;12.834;2023-04-23T06:46:21;100051.31;;;14.02;80.64
29825;BME280;16713;52.916;12.834;2023-04-23T06:48:47;100052.88;;;14.17;80.95
29825;BME280;16713;52.916;12.834;2023-04-23T06:51:14;100050.50;;;14.16;80.70
29825;BME280;16713;52.916;12.834;2023-04-23T06:53:41;100047.38;;;14.10;80.11
29825;BME280;16713;52.916;12.834;2023-04-23T06:56:07;100048.13;;;14.07;80.27
29825;BME280;16713;52.916;12.834;2023-04-23T06:58:34;100054.03;;;14.06;79.50
29825;BME280;16713;52.916;12.834;2023-04-23T07:01:01;100047.75;;;14.05;80.46
29825;BME280;16713;52.916;12.834;2023-04-23T07:03:30;100050.91;;;14.14;79.79
29825;BME280;16713;52.916;12.834;2023-04-23T07:05:57;100047.75;;;14.16;80.35
29825;BME280;16713;52.916;12.834;2023-04-23T07:08:23;100051.69;;;14.11;80.50
29825;BME280;16713;52.916;12.834;2023-04-23T07:10:50;100049.31;;;14.20;79.27
29825;BME280;16713;52.916;12.834;2023-04-23T07:13:16;100051.69;;;14.22;79.73
29825;BME280;16713;52.916;12.834;2023-04-23T07:15:43;100043.41;;;14.22;79.47
29825;BME280;16713;52.916;12.834;2023-04-23T07:18:09;100055.22;;;14.26;80.63
29825;BME280;16713;52.916;12.834;2023-04-23T07:20:36;100054.84;;;14.24;80.67
29825;BME280;16713;52.916;12.834;2023-04-23T07:23:03;100050.50;;;14.26;80.52
29825;BME280;16713;52.916;12.834;2023-04-23T07:25:30;100048.13;;;14.35;79.06
29825;BME280;16713;52.916;12.834;2023-04-23T07:27:57;100058.78;;;14.26;79.88
29825;BME280;16713;52.916;12.834;2023-04-23T07:30:25;100057.59;;;14.24;80.39
29825;BME280;16713;52.916;12.834;2023-04-23T07:32:52;100058.78;;;14.19;80.28
29825;BME280;16713;52.916;12.834;2023-04-23T07:35:19;100055.25;;;14.08;80.78
29825;BME280;16713;52.916;12.834;2023-04-23T07:37:46;100058.41;;;14.10;79.92
29825;BME280;16713;52.916;12.834;2023-04-23T07:40:12;100059.94;;;14.01;80.12
29825;BME280;16713;52.916;12.834;2023-04-23T07:42:39;100055.22;;;13.98;79.99
29825;BME280;16713;52.916;12.834;2023-04-23T07:45:05;100055.63;;;13.96;81.43
29825;BME280;16713;52.916;12.834;2023-04-23T07:47:32;100062.69;;;13.87;80.38
29825;BME280;16713;52.916;12.834;2023-04-23T07:49:58;100063.91;;;14.00;79.97
29825;BME280;16713;52.916;12.834;2023-04-23T07:52:25;100062.69;;;14.01;80.93
29825;BME280;16713;52.916;12.834;2023-04-23T07:54:51;100076.91;;;14.03;80.74
29825;BME280;16713;52.916;12.834;2023-04-23T07:57:18;100070.59;;;14.09;79.33
29825;BME280;16713;52.916;12.834;2023-04-23T07:59:44;100074.16;;;14.10;79.32
29825;BME280;16713;52.916;12.834;2023-04-23T08:02:11;100074.91;;;13.93;80.97
29825;BME280;16713;52.916;12.834;2023-04-23T08:04:37;100063.50;;;14.05;79.68
29825;BME280;16713;52.916;12.834;2023-04-23T08:07:04;100072.53;;;13.91;80.57
29825;BME280;16713;52.916;12.834;2023-04-23T08:09:31;100072.94;;;13.93;81.32
29825;BME280;16713;52.916;12.834;2023-04-23T08:11:57;100070.63;;;14.02;80.87
29825;BME280;16713;52.916;12.834;2023-04-23T08:14:24;100071.78;;;13.87;79.93
29825;BME280;16713;52.916;12.834;2023-04-23T08:16:50;100061.50;;;13.74;81.25
29825;BME280;16713;52.916;12.834;2023-04-23T08:19:16;100067.03;;;13.91;81.28
29825;BME280;16713;52.916;12.834;2023-04-23T08:21:43;100069.41;;;13.96;79.68
29825;BME280;16713;52.916;12.834;2023-04-23T08:24:09;100081.22;;;14.00;80.22
29825;BME280;16713;52.916;12.834;2023-04-23T08:26:36;100078.88;;;14.02;79.29
29825;BME280;16713;52.916;12.834;2023-04-23T08:29:02;100074.91;;;13.96;80.72
29825;BME280;16713;52.916;12.834;2023-04-23T08:31:30;100067.44;;;13.97;79.95
29825;BME280;16713;52.916;12.834;2023-04-23T08:33:57;100065.47;;;13.87;79.95
29825;BME280;16713;52.916;12.834;2023-04-23T08:36:23;100063.50;;;13.98;79.86
29825;BME280;16713;52.916;12.834;2023-04-23T08:38:51;100065.47;;;13.90;80.51
29825;BME280;16713;52.916;12.834;2023-04-23T08:41:21;100073.75;;;13.97;80.97
29825;BME280;16713;52.916;12.834;2023-04-23T08:43:50;100083.19;;;13.96;80.84
29825;BME280;16713;52.916;12.834;2023-04-23T08:46:18;100076.09;;;13.92;81.46
29825;BME280;16713;52.916;12.834;2023-04-23T08:48:45;100081.22;;;13.97;80.25
29825;BME280;16713;52.916;12.834;2023-04-23T08:51:17;100078.06;;;13.84;80.90
29825;BME280;16713;52.916;12.834;2023-04-23T08:53:49;100081.59;;;13.85;81.52
29825;BME280;16713;52.916;12.834;2023-04-23T08:56:18;100086.34;;;13.95;81.04
29825;BME280;16713;52.916;12.834;2023-04-23T08:58:45;100089.50;;;13.97;80.86
29825;BME280;16713;52.916;12.834;2023-04-23T09:01:12;100088.31;;;13.94;81.24
29825;BME280;16713;52.916;12.834;2023-04-23T09:03:39;100090.28;;;13.94;82.45
29825;BME280;16713;52.916;12.834;2023-04-23T09:06:08;100089.09;;;13.95;82.51
29825;BME280;16713;52.916;12.834;2023-04-23T09:08:35;100087.53;;;13.97;80.97
29825;BME280;16713;52.916;12.834;2023-04-23T09:11:03;100101.72;;;14.10;82.90
29825;BME280;16713;52.916;12.834;2023-04-23T09:13:32;100099.75;;;14.07;82.14
29825;BME280;16713;52.916;12.834;2023-04-23T09:16:00;100091.88;;;14.23;81.30
29825;BME280;16713;52.916;12.834;2023-04-23T09:18:26;100092.66;;;14.16;81.21
29825;BME280;16713;52.916;12.834;2023-04-23T09:20:53;100095.03;;;14.28;81.09
29825;BME280;16713;52.916;12.834;2023-04-23T09:23:20;100098.19;;;14.37;81.95
29825;BME280;16713;52.916;12.834;2023-04-23T09:25:48;100098.97;;;14.45;81.00
29825;BME280;16713;52.916;12.834;2023-04-23T09:28:14;100096.19;;;14.41;79.86
29825;BME280;16713;52.916;12.834;2023-04-23T09:30:44;100095.41;;;14.41;80.09
29825;BME280;16713;52.916;12.834;2023-04-23T09:33:12;100104.88;;;14.40;80.60
29825;BME280;16713;52.916;12.834;2023-04-23T09:35:38;100106.06;;;14.39;79.51
29825;BME280;16713;52.916;12.834;2023-04-23T09:38:07;100106.84;;;14.15;78.80
29825;BME280;16713;52.916;12.834;2023-04-23T09:40:36;100108.44;;;14.26;78.52
29825;BME280;16713;52.916;12.834;2023-04-23T09:43:04;100111.19;;;14.33;76.88
29825;BME280;16713;52.916;12.834;2023-04-23T09:45:32;100107.63;;;13.91;77.28
29825;BME280;16713;52.916;12.834;2023-04-23T09:48:00;100111.13;;;13.70;76.66
29825;BME280;16713;52.916;12.834;2023-04-23T09:50:38;100113.91;;;13.98;76.65
29825;BME280;16713;52.916;12.834;2023-04-23T09:53:06;100122.22;;;14.16;77.29
29825;BME280;16713;52.916;12.834;2023-04-23T09:55:37;100128.88;;;13.94;76.38
29825;BME280;16713;52.916;12.834;2023-04-23T09:58:09;100127.75;;;14.23;76.64
29825;BME280;16713;52.916;12.834;2023-04-23T10:00:37;100125.34;;;14.00;76.53
29825;BME280;16713;52.916;12.834;2023-04-23T10:03:05;100129.69;;;14.05;77.21
29825;BME280;16713;52.916;12.834;2023-04-23T10:05:38;100130.47;;;14.09;77.22
29825;BME280;16713;52.916;12.834;2023-04-23T10:08:26;100137.97;;;14.15;76.08
29825;BME280;16713;52.916;12.834;2023-04-23T10:10:52;100132.84;;;14.14;77.74
29825;BME280;16713;52.916;12.834;2023-04-23T10:13:35;100134.41;;;14.04;76.41
29825;BME280;16713;52.916;12.834;2023-04-23T10:16:03;100147.41;;;14.11;77.52
29825;BME280;16713;52.916;12.834;2023-04-23T10:18:49;100141.50;;;14.09;77.96
29825;BME280;16713;52.916;12.834;2023-04-23T10:21:16;100150.53;;;13.92;77.66
29825;BME280;16713;52.916;12.834;2023-04-23T10:23:43;100154.13;;;14.06;76.54
29825;BME280;16713;52.916;12.834;2023-04-23T10:26:14;100156.88;;;14.10;76.19
29825;BME280;16713;52.916;12.834;2023-04-23T10:28:46;100156.84;;;14.03;76.52
29825;BME280;16713;52.916;12.834;2023-04-23T10:31:14;100158.84;;;13.99;78.44
29825;BME280;16713;52.916;12.834;2023-04-23T10:33:41;100164.75;;;14.11;76.48
29825;BME280;16713;52.916;12.834;2023-04-23T10:36:24;100161.59;;;14.09;77.80
29825;BME280;16713;52.916;12.834;2023-04-23T10:38:54;100164.34;;;14.06;78.26
29825;BME280;16713;52.916;12.834;2023-04-23T10:41:34;100167.88;;;13.89;76.49
29825;BME280;16713;52.916;12.834;2023-04-23T10:44:05;100171.41;;;13.93;77.50
29825;BME280;16713;52.916;12.834;2023-04-23T10:46:33;100161.97;;;14.01;78.10
29825;BME280;16713;52.916;12.834;2023-04-23T10:49:10;100178.91;;;13.99;77.42
29825;BME280;16713;52.916;12.834;2023-04-23T10:51:40;100179.72;;;14.00;77.67
29825;BME280;16713;52.916;12.834;2023-04-23T10:54:15;100176.53;;;13.98;76.74
29825;BME280;16713;52.916;12.834;2023-04-23T10:56:44;100179.69;;;13.96;77.86
29825;BME280;16713;52.916;12.834;2023-04-23T10:59:20;100172.66;;;14.13;76.64
29825;BME280;16713;52.916;12.834;2023-04-23T11:01:51;100176.19;;;14.13;77.64
29825;BME280;16713;52.916;12.834;2023-04-23T11:04:30;100176.22;;;14.27;78.08
29825;BME280;16713;52.916;12.834;2023-04-23T11:07:04;100184.50;;;14.38;77.73
29825;BME280;16713;52.916;12.834;2023-04-23T11:09:52;100180.94;;;14.34;78.08
29825;BME280;16713;52.916;12.834;2023-04-23T11:14:50;100182.53;;;14.38;76.90
29825;BME280;16713;52.916;12.834;2023-04-23T11:20:12;100172.72;;;14.58;76.99
29825;BME280;16713;52.916;12.834;2023-04-23T11:25:12;100186.09;;;14.95;78.71
29825;BME280;16713;52.916;12.834;2023-04-23T11:27:40;100186.88;;;14.96;76.29
29825;BME280;16713;52.916;12.834;2023-04-23T11:32:40;100192.41;;;15.03;73.73
29825;BME280;16713;52.916;12.834;2023-04-23T11:35:07;100195.53;;;15.19;72.70
29825;BME280;16713;52.916;12.834;2023-04-23T11:37:39;100188.84;;;15.16;73.61
29825;BME280;16713;52.916;12.834;2023-04-23T11:40:13;100195.06;;;15.34;72.57
29825;BME280;16713;52.916;12.834;2023-04-23T11:42:51;100196.63;;;15.42;71.50
29825;BME280;16713;52.916;12.834;2023-04-23T11:45:25;100192.69;;;15.47;71.11
29825;BME280;16713;52.916;12.834;2023-04-23T11:47:53;100199.41;;;15.49;69.85
29825;BME280;16713;52.916;12.834;2023-04-23T11:50:28;100201.38;;;15.59;71.17
29825;BME280;16713;52.916;12.834;2023-04-23T11:53:06;100205.72;;;15.53;68.35
29825;BME280;16713;52.916;12.834;2023-04-23T11:55:34;100200.16;;;15.60;68.66
29825;BME280;16713;52.916;12.834;2023-04-23T11:58:01;100200.09;;;15.74;69.85
29825;BME280;16713;52.916;12.834;2023-04-23T12:00:28;100202.84;;;15.81;70.53
29825;BME280;16713;52.916;12.834;2023-04-23T12:03:02;100203.25;;;15.83;69.25
29825;BME280;16713;52.916;12.834;2023-04-23T12:05:34;100204.78;;;15.88;68.78
29825;BME280;16713;52.916;12.834;2023-04-23T12:08:15;100211.91;;;15.85;68.20
29825;BME280;16713;52.916;12.834;2023-04-23T12:10:54;100206.72;;;15.98;66.68
29825;BME280;16713;52.916;12.834;2023-04-23T12:13:27;100217.00;;;15.94;66.67
29825;BME280;16713;52.916;12.834;2023-04-23T12:15:58;100221.31;;;15.98;65.78
29825;BME280;16713;52.916;12.834;2023-04-23T12:18:32;100219.44;;;15.85;66.61
29825;BME280;16713;52.916;12.834;2023-04-23T12:21:07;100225.31;;;15.90;65.63
29825;BME280;16713;52.916;12.834;2023-04-23T12:23:35;100232.38;;;16.05;65.14
29825;BME280;16713;52.916;12.834;2023-04-23T12:26:03;100233.56;;;16.04;65.57
29825;BME280;16713;52.916;12.834;2023-04-23T12:28:29;100233.56;;;16.04;64.62
29825;BME280;16713;52.916;12.834;2023-04-23T12:31:00;100239.03;;;16.11;65.53
29825;BME280;16713;52.916;12.834;2023-04-23T12:33:28;100233.16;;;16.06;65.56
29825;BME280;16713;52.916;12.834;2023-04-23T12:35:56;100239.44;;;16.10;64.58
29825;BME280;16713;52.916;12.834;2023-04-23T12:38:24;100229.19;;;16.10;65.58
29825;BME280;16713;52.916;12.834;2023-04-23T12:40:57;100226.03;;;16.08;65.40
29825;BME280;16713;52.916;12.834;2023-04-23T12:43:24;100214.28;;;15.87;63.79
29825;BME280;16713;52.916;12.834;2023-04-23T12:45:52;100219.34;;;15.99;63.13
29825;BME280;16713;52.916;12.834;2023-04-23T12:48:19;100209.16;;;15.82;61.07
29825;BME280;16713;52.916;12.834;2023-04-23T12:50:46;100209.44;;;16.01;61.04
29825;BME280;16713;52.916;12.834;2023-04-23T12:53:14;100200.97;;;15.54;60.51
29825;BME280;16713;52.916;12.834;2023-04-23T12:55:40;100204.53;;;15.54;60.03